sensor_id;sensor_type;location;lat;lon;timestamp;P1;durP1;ratioP1;P2;durP2;ratioP2
9970;SDS011;5026;51.494;11.974;2022-10-16T00:01:20;1.27;;;0.60;;
9970;SDS011;5026;51.494;11.974;2022-10-16T00:03:49;0.60;;;0.60;;
9970;SDS011;5026;51.494;11.974;2022-10-16T00:06:17;0.60;;;0.60;;
9970;SDS011;5026;51.494;11.974;2022-10-16T00:08:46;0.63;;;0.63;;
9970;SDS011;5026;51.494;11.974;2022-10-16T00:11:15;0.90;;;0.90;;
9970;SDS011;5026;51.494;11.974;2022-10-16T00:13:43;1.30;;;0.57;;
9970;SDS011;5026;51.494;11.974;2022-10-16T00:16:12;0.93;;;0.85;;
9970;SDS011;5026;51.494;11.974;2022-10-16T00:18:39;0.73;;;0.73;;
9970;SDS011;5026;51.494;11.974;2022-10-16T00:21:07;2.25;;;0.80;;
9970;SDS011;5026;51.494;11.974;2022-10-16T00:23:35;0.85;;;0.85;;
9970;SDS011;5026;51.494;11.974;2022-10-16T00:26:04;0.90;;;0.80;;
9970;SDS011;5026;51.494;11.974;2022-10-16T00:28:32;2.45;;;0.80;;
9970;SDS011;5026;51.494;11.974;2022-10-16T00:31:02;1.10;;;1.00;;
9970;SDS011;5026;51.494;11.974;2022-10-16T00:33:29;1.65;;;1.10;;
9970;SDS011;5026;51.494;11.974;2022-10-16T00:35:57;1.02;;;0.95;;
9970;SDS011;5026;51.494;11.974;2022-10-16T00:38:24;2.10;;;0.77;;
9970;SDS011;5026;51.494;11.974;2022-10-16T00:40:51;0.95;;;0.90;;
9970;SDS011;5026;51.494;11.974;2022-10-16T00:43:34;0.65;;;0.60;;
9970;SDS011;5026;51.494;11.974;2022-10-16T00:46:05;0.70;;;0.70;;
9970;SDS011;5026;51.494;11.974;2022-10-16T00:48:36;0.90;;;0.90;;
9970;SDS011;5026;51.494;11.974;2022-10-16T00:51:03;0.70;;;0.70;;
9970;SDS011;5026;51.494;11.974;2022-10-16T00:53:31;1.23;;;0.77;;
9970;SDS011;5026;51.494;11.974;2022-10-16T00:55:59;0.95;;;0.73;;
9970;SDS011;5026;51.494;11.974;2022-10-16T00:58:25;1.10;;;0.73;;
9970;SDS011;5026;51.494;11.974;2022-10-16T01:00:54;0.60;;;0.52;;
9970;SDS011;5026;51.494;11.974;2022-10-16T01:03:23;0.80;;;0.80;;
9970;SDS011;5026;51.494;11.974;2022-10-16T01:05:53;0.70;;;0.70;;
9970;SDS011;5026;51.494;11.974;2022-10-16T01:08:29;1.45;;;0.80;;
9970;SDS011;5026;51.494;11.974;2022-10-16T01:11:06;0.77;;;0.77;;
9970;SDS011;5026;51.494;11.974;2022-10-16T01:13:40;0.80;;;0.80;;
9970;SDS011;5026;51.494;11.974;2022-10-16T01:16:14;1.75;;;0.90;;
9970;SDS011;5026;51.494;11.974;2022-10-16T01:18:46;1.17;;;0.90;;
9970;SDS011;5026;51.494;11.974;2022-10-16T01:21:19;1.00;;;0.98;;
9970;SDS011;5026;51.494;11.974;2022-10-16T01:23:51;1.10;;;1.00;;
9970;SDS011;5026;51.494;11.974;2022-10-16T01:26:35;1.10;;;1.00;;
9970;SDS011;5026;51.494;11.974;2022-10-16T01:29:12;1.55;;;0.85;;
9970;SDS011;5026;51.494;11.974;2022-10-16T01:31:44;1.10;;;1.00;;
9970;SDS011;5026;51.494;11.974;2022-10-16T01:34:18;1.00;;;1.00;;
9970;SDS011;5026;51.494;11.974;2022-10-16T01:36:51;2.83;;;1.35;;
9970;SDS011;5026;51.494;11.974;2022-10-16T01:39:22;1.10;;;1.10;;
9970;SDS011;5026;51.494;11.974;2022-10-16T01:41:55;1.20;;;1.10;;
9970;SDS011;5026;51.494;11.974;2022-10-16T01:44:28;1.90;;;1.13;;
9970;SDS011;5026;51.494;11.974;2022-10-16T01:46:57;1.00;;;1.00;;
9970;SDS011;5026;51.494;11.974;2022-10-16T01:49:26;1.35;;;1.10;;
9970;SDS011;5026;51.494;11.974;2022-10-16T01:51:58;1.63;;;1.10;;
9970;SDS011;5026;51.494;11.974;2022-10-16T01:54:28;2.13;;;1.15;;
9970;SDS011;5026;51.494;11.974;2022-10-16T01:56:57;1.85;;;1.20;;
9970;SDS011;5026;51.494;11.974;2022-10-16T01:59:26;1.90;;;1.10;;
9970;SDS011;5026;51.494;11.974;2022-10-16T02:01:58;5.50;;;1.13;;
9970;SDS011;5026;51.494;11.974;2022-10-16T02:04:28;0.98;;;0.98;;
9970;SDS011;5026;51.494;11.974;2022-10-16T02:06:57;0.98;;;0.98;;
9970;SDS011;5026;51.494;11.974;2022-10-16T02:09:25;0.85;;;0.85;;
9970;SDS011;5026;51.494;11.974;2022-10-16T02:11:52;1.05;;;1.05;;
9970;SDS011;5026;51.494;11.974;2022-10-16T02:14:20;1.20;;;1.08;;
9970;SDS011;5026;51.494;11.974;2022-10-16T02:16:51;1.10;;;1.00;;
9970;SDS011;5026;51.494;11.974;2022-10-16T02:19:18;1.13;;;1.02;;
9970;SDS011;5026;51.494;11.974;2022-10-16T02:21:48;1.63;;;1.20;;
9970;SDS011;5026;51.494;11.974;2022-10-16T02:24:18;2.13;;;1.15;;
9970;SDS011;5026;51.494;11.974;2022-10-16T02:27:01;0.98;;;0.98;;
9970;SDS011;5026;51.494;11.974;2022-10-16T02:29:33;1.25;;;1.13;;
9970;SDS011;5026;51.494;11.974;2022-10-16T02:32:10;0.93;;;0.93;;
9970;SDS011;5026;51.494;11.974;2022-10-16T02:34:41;3.85;;;1.23;;
9970;SDS011;5026;51.494;11.974;2022-10-16T02:37:09;1.15;;;1.10;;
9970;SDS011;5026;51.494;11.974;2022-10-16T02:39:36;2.30;;;1.50;;
9970;SDS011;5026;51.494;11.974;2022-10-16T02:42:06;1.45;;;1.10;;
9970;SDS011;5026;51.494;11.974;2022-10-16T02:44:36;1.48;;;1.17;;
9970;SDS011;5026;51.494;11.974;2022-10-16T02:47:03;1.10;;;1.00;;
9970;SDS011;5026;51.494;11.974;2022-10-16T02:49:31;1.40;;;1.30;;
9970;SDS011;5026;51.494;11.974;2022-10-16T02:51:58;2.40;;;1.40;;
9970;SDS011;5026;51.494;11.974;2022-10-16T02:54:25;1.30;;;1.25;;
9970;SDS011;5026;51.494;11.974;2022-10-16T02:56:52;2.40;;;1.15;;
9970;SDS011;5026;51.494;11.974;2022-10-16T02:59:18;1.75;;;1.33;;
9970;SDS011;5026;51.494;11.974;2022-10-16T03:01:45;1.52;;;1.25;;
9970;SDS011;5026;51.494;11.974;2022-10-16T03:04:12;2.20;;;1.50;;
9970;SDS011;5026;51.494;11.974;2022-10-16T03:06:41;2.03;;;1.63;;
9970;SDS011;5026;51.494;11.974;2022-10-16T03:09:08;1.33;;;1.33;;
9970;SDS011;5026;51.494;11.974;2022-10-16T03:11:35;1.63;;;1.52;;
9970;SDS011;5026;51.494;11.974;2022-10-16T03:14:02;1.85;;;1.50;;
9970;SDS011;5026;51.494;11.974;2022-10-16T03:16:28;1.50;;;1.40;;
9970;SDS011;5026;51.494;11.974;2022-10-16T03:18:55;1.30;;;1.30;;
9970;SDS011;5026;51.494;11.974;2022-10-16T03:21:22;1.77;;;1.58;;
9970;SDS011;5026;51.494;11.974;2022-10-16T03:23:51;1.65;;;1.15;;
9970;SDS011;5026;51.494;11.974;2022-10-16T03:26:17;1.80;;;1.70;;
9970;SDS011;5026;51.494;11.974;2022-10-16T03:28:44;1.40;;;1.30;;
9970;SDS011;5026;51.494;11.974;2022-10-16T03:31:11;1.38;;;1.27;;
9970;SDS011;5026;51.494;11.974;2022-10-16T03:33:38;1.30;;;1.10;;
9970;SDS011;5026;51.494;11.974;2022-10-16T03:36:05;1.55;;;1.45;;
9970;SDS011;5026;51.494;11.974;2022-10-16T03:38:32;1.30;;;1.20;;
9970;SDS011;5026;51.494;11.974;2022-10-16T03:41:01;1.23;;;1.23;;
9970;SDS011;5026;51.494;11.974;2022-10-16T03:43:28;1.35;;;1.25;;
9970;SDS011;5026;51.494;11.974;2022-10-16T03:45:55;1.38;;;1.27;;
9970;SDS011;5026;51.494;11.974;2022-10-16T03:48:22;1.23;;;1.13;;
9970;SDS011;5026;51.494;11.974;2022-10-16T03:50:49;1.58;;;1.25;;
9970;SDS011;5026;51.494;11.974;2022-10-16T03:53:16;1.40;;;1.30;;
9970;SDS011;5026;51.494;11.974;2022-10-16T03:55:44;2.35;;;1.40;;
9970;SDS011;5026;51.494;11.974;2022-10-16T03:58:12;1.50;;;1.40;;
9970;SDS011;5026;51.494;11.974;2022-10-16T04:00:39;2.28;;;1.48;;
9970;SDS011;5026;51.494;11.974;2022-10-16T04:03:07;1.33;;;1.30;;
9970;SDS011;5026;51.494;11.974;2022-10-16T04:05:34;1.52;;;1.40;;
9970;SDS011;5026;51.494;11.974;2022-10-16T04:08:01;1.58;;;1.48;;
9970;SDS011;5026;51.494;11.974;2022-10-16T04:10:28;4.25;;;1.55;;
9970;SDS011;5026;51.494;11.974;2022-10-16T04:12:56;1.40;;;1.30;;
9970;SDS011;5026;51.494;11.974;2022-10-16T04:15:24;1.42;;;1.33;;
9970;SDS011;5026;51.494;11.974;2022-10-16T04:17:52;1.60;;;1.50;;
9970;SDS011;5026;51.494;11.974;2022-10-16T04:20:20;1.60;;;1.50;;
9970;SDS011;5026;51.494;11.974;2022-10-16T04:22:47;2.05;;;1.40;;
9970;SDS011;5026;51.494;11.974;2022-10-16T04:25:14;2.35;;;1.10;;
9970;SDS011;5026;51.494;11.974;2022-10-16T04:27:40;1.45;;;1.38;;
9970;SDS011;5026;51.494;11.974;2022-10-16T04:30:08;1.33;;;1.17;;
9970;SDS011;5026;51.494;11.974;2022-10-16T04:32:37;1.90;;;1.40;;
9970;SDS011;5026;51.494;11.974;2022-10-16T04:35:04;2.10;;;1.10;;
9970;SDS011;5026;51.494;11.974;2022-10-16T04:37:31;1.30;;;1.17;;
9970;SDS011;5026;51.494;11.974;2022-10-16T04:39:58;1.58;;;1.48;;
9970;SDS011;5026;51.494;11.974;2022-10-16T04:42:25;1.95;;;1.30;;
9970;SDS011;5026;51.494;11.974;2022-10-16T04:44:52;1.50;;;1.40;;
9970;SDS011;5026;51.494;11.974;2022-10-16T04:47:18;1.60;;;1.50;;
9970;SDS011;5026;51.494;11.974;2022-10-16T04:49:47;2.17;;;1.98;;
9970;SDS011;5026;51.494;11.974;2022-10-16T04:52:14;1.95;;;1.85;;
9970;SDS011;5026;51.494;11.974;2022-10-16T04:54:41;1.67;;;1.58;;
9970;SDS011;5026;51.494;11.974;2022-10-16T04:57:10;1.63;;;1.52;;
9970;SDS011;5026;51.494;11.974;2022-10-16T04:59:36;1.73;;;1.48;;
9970;SDS011;5026;51.494;11.974;2022-10-16T05:02:03;1.73;;;1.63;;
9970;SDS011;5026;51.494;11.974;2022-10-16T05:04:30;1.67;;;1.50;;
9970;SDS011;5026;51.494;11.974;2022-10-16T05:06:59;1.80;;;1.70;;
9970;SDS011;5026;51.494;11.974;2022-10-16T05:09:25;2.45;;;1.88;;
9970;SDS011;5026;51.494;11.974;2022-10-16T05:11:52;1.75;;;1.58;;
9970;SDS011;5026;51.494;11.974;2022-10-16T05:14:19;4.63;;;1.67;;
9970;SDS011;5026;51.494;11.974;2022-10-16T05:16:46;2.33;;;1.50;;
9970;SDS011;5026;51.494;11.974;2022-10-16T05:19:13;2.00;;;1.80;;
9970;SDS011;5026;51.494;11.974;2022-10-16T05:21:40;1.85;;;1.50;;
9970;SDS011;5026;51.494;11.974;2022-10-16T05:24:09;1.40;;;1.30;;
9970;SDS011;5026;51.494;11.974;2022-10-16T05:26:35;1.55;;;1.40;;
9970;SDS011;5026;51.494;11.974;2022-10-16T05:29:03;1.50;;;1.40;;
9970;SDS011;5026;51.494;11.974;2022-10-16T05:31:29;1.42;;;1.33;;
9970;SDS011;5026;51.494;11.974;2022-10-16T05:33:57;1.40;;;1.30;;
9970;SDS011;5026;51.494;11.974;2022-10-16T05:36:25;1.45;;;1.35;;
9970;SDS011;5026;51.494;11.974;2022-10-16T05:38:52;3.13;;;2.33;;
9970;SDS011;5026;51.494;11.974;2022-10-16T05:41:20;1.35;;;1.23;;
9970;SDS011;5026;51.494;11.974;2022-10-16T05:43:50;1.50;;;1.40;;
9970;SDS011;5026;51.494;11.974;2022-10-16T05:46:17;1.33;;;1.23;;
9970;SDS011;5026;51.494;11.974;2022-10-16T05:48:44;2.50;;;1.30;;
9970;SDS011;5026;51.494;11.974;2022-10-16T05:51:12;2.17;;;1.50;;
9970;SDS011;5026;51.494;11.974;2022-10-16T05:53:40;1.63;;;1.45;;
9970;SDS011;5026;51.494;11.974;2022-10-16T05:56:09;1.63;;;1.52;;
9970;SDS011;5026;51.494;11.974;2022-10-16T05:58:39;1.50;;;1.40;;
9970;SDS011;5026;51.494;11.974;2022-10-16T06:01:08;1.98;;;1.40;;
9970;SDS011;5026;51.494;11.974;2022-10-16T06:03:36;2.65;;;1.42;;
9970;SDS011;5026;51.494;11.974;2022-10-16T06:06:09;1.38;;;1.35;;
9970;SDS011;5026;51.494;11.974;2022-10-16T06:08:38;1.30;;;1.20;;
9970;SDS011;5026;51.494;11.974;2022-10-16T06:11:06;2.55;;;1.27;;
9970;SDS011;5026;51.494;11.974;2022-10-16T06:13:34;1.20;;;1.20;;
9970;SDS011;5026;51.494;11.974;2022-10-16T06:16:03;4.50;;;1.27;;
9970;SDS011;5026;51.494;11.974;2022-10-16T06:18:30;1.90;;;1.20;;
9970;SDS011;5026;51.494;11.974;2022-10-16T06:20:57;2.38;;;1.25;;
9970;SDS011;5026;51.494;11.974;2022-10-16T06:23:25;1.77;;;1.40;;
9970;SDS011;5026;51.494;11.974;2022-10-16T06:25:54;1.63;;;1.40;;
9970;SDS011;5026;51.494;11.974;2022-10-16T06:28:30;1.42;;;1.33;;
9970;SDS011;5026;51.494;11.974;2022-10-16T06:30:58;1.48;;;1.23;;
9970;SDS011;5026;51.494;11.974;2022-10-16T06:33:26;2.13;;;1.13;;
9970;SDS011;5026;51.494;11.974;2022-10-16T06:35:53;1.55;;;1.40;;
9970;SDS011;5026;51.494;11.974;2022-10-16T06:38:25;1.83;;;1.30;;
9970;SDS011;5026;51.494;11.974;2022-10-16T06:40:53;1.58;;;1.48;;
9970;SDS011;5026;51.494;11.974;2022-10-16T06:43:20;1.40;;;1.30;;
9970;SDS011;5026;51.494;11.974;2022-10-16T06:45:49;1.50;;;1.40;;
9970;SDS011;5026;51.494;11.974;2022-10-16T06:48:17;2.95;;;1.48;;
9970;SDS011;5026;51.494;11.974;2022-10-16T06:50:45;2.92;;;1.23;;
9970;SDS011;5026;51.494;11.974;2022-10-16T06:53:21;1.30;;;1.20;;
9970;SDS011;5026;51.494;11.974;2022-10-16T06:55:48;2.25;;;1.42;;
9970;SDS011;5026;51.494;11.974;2022-10-16T06:58:15;1.70;;;1.60;;
9970;SDS011;5026;51.494;11.974;2022-10-16T07:00:42;1.42;;;1.08;;
9970;SDS011;5026;51.494;11.974;2022-10-16T07:03:09;3.45;;;1.60;;
9970;SDS011;5026;51.494;11.974;2022-10-16T07:05:37;2.30;;;1.30;;
9970;SDS011;5026;51.494;11.974;2022-10-16T07:08:05;1.95;;;1.00;;
9970;SDS011;5026;51.494;11.974;2022-10-16T07:10:32;1.80;;;1.05;;
9970;SDS011;5026;51.494;11.974;2022-10-16T07:12:59;4.05;;;0.82;;
9970;SDS011;5026;51.494;11.974;2022-10-16T07:15:26;1.23;;;1.13;;
9970;SDS011;5026;51.494;11.974;2022-10-16T07:17:53;1.85;;;1.50;;
9970;SDS011;5026;51.494;11.974;2022-10-16T07:20:20;2.38;;;1.05;;
9970;SDS011;5026;51.494;11.974;2022-10-16T07:22:47;1.98;;;1.20;;
9970;SDS011;5026;51.494;11.974;2022-10-16T07:25:16;2.45;;;1.60;;
9970;SDS011;5026;51.494;11.974;2022-10-16T07:27:43;2.05;;;1.20;;
9970;SDS011;5026;51.494;11.974;2022-10-16T07:30:09;1.50;;;1.40;;
9970;SDS011;5026;51.494;11.974;2022-10-16T07:32:37;1.48;;;1.10;;
9970;SDS011;5026;51.494;11.974;2022-10-16T07:35:04;2.30;;;1.30;;
9970;SDS011;5026;51.494;11.974;2022-10-16T07:37:31;2.67;;;1.23;;
9970;SDS011;5026;51.494;11.974;2022-10-16T07:39:58;1.55;;;1.08;;
9970;SDS011;5026;51.494;11.974;2022-10-16T07:42:28;1.42;;;1.00;;
9970;SDS011;5026;51.494;11.974;2022-10-16T07:44:54;1.50;;;1.10;;
9970;SDS011;5026;51.494;11.974;2022-10-16T07:47:21;1.95;;;1.30;;
9970;SDS011;5026;51.494;11.974;2022-10-16T07:49:48;3.33;;;1.20;;
9970;SDS011;5026;51.494;11.974;2022-10-16T07:52:15;1.45;;;1.20;;
9970;SDS011;5026;51.494;11.974;2022-10-16T07:54:42;2.40;;;1.50;;
9970;SDS011;5026;51.494;11.974;2022-10-16T07:57:09;1.40;;;1.27;;
9970;SDS011;5026;51.494;11.974;2022-10-16T07:59:38;2.38;;;1.38;;
9970;SDS011;5026;51.494;11.974;2022-10-16T08:02:05;2.30;;;1.30;;
9970;SDS011;5026;51.494;11.974;2022-10-16T08:04:31;2.80;;;1.67;;
9970;SDS011;5026;51.494;11.974;2022-10-16T08:06:59;1.17;;;0.90;;
9970;SDS011;5026;51.494;11.974;2022-10-16T08:09:26;1.42;;;0.77;;
9970;SDS011;5026;51.494;11.974;2022-10-16T08:11:53;1.42;;;0.90;;
9970;SDS011;5026;51.494;11.974;2022-10-16T08:14:20;1.00;;;0.93;;
9970;SDS011;5026;51.494;11.974;2022-10-16T08:16:49;2.53;;;1.10;;
9970;SDS011;5026;51.494;11.974;2022-10-16T08:19:15;1.13;;;1.08;;
9970;SDS011;5026;51.494;11.974;2022-10-16T08:21:42;1.70;;;1.27;;
9970;SDS011;5026;51.494;11.974;2022-10-16T08:24:13;0.85;;;0.85;;
9970;SDS011;5026;51.494;11.974;2022-10-16T08:26:40;2.58;;;1.30;;
9970;SDS011;5026;51.494;11.974;2022-10-16T08:29:07;1.48;;;0.93;;
9970;SDS011;5026;51.494;11.974;2022-10-16T08:31:34;5.85;;;1.00;;
9970;SDS011;5026;51.494;11.974;2022-10-16T08:34:02;0.90;;;0.90;;
9970;SDS011;5026;51.494;11.974;2022-10-16T08:36:29;0.90;;;0.85;;
9970;SDS011;5026;51.494;11.974;2022-10-16T08:38:56;3.42;;;0.90;;
9970;SDS011;5026;51.494;11.974;2022-10-16T08:41:29;1.10;;;1.10;;
9970;SDS011;5026;51.494;11.974;2022-10-16T08:44:29;4.30;;;1.83;;
9970;SDS011;5026;51.494;11.974;2022-10-16T08:47:06;1.58;;;1.48;;
9970;SDS011;5026;51.494;11.974;2022-10-16T08:49:42;1.30;;;1.20;;
9970;SDS011;5026;51.494;11.974;2022-10-16T08:52:16;2.78;;;1.40;;
9970;SDS011;5026;51.494;11.974;2022-10-16T08:54:43;1.38;;;1.27;;
9970;SDS011;5026;51.494;11.974;2022-10-16T08:57:14;1.25;;;1.15;;
9970;SDS011;5026;51.494;11.974;2022-10-16T08:59:44;3.10;;;1.20;;
9970;SDS011;5026;51.494;11.974;2022-10-16T09:02:18;0.80;;;0.77;;
9970;SDS011;5026;51.494;11.974;2022-10-16T09:04:57;1.95;;;1.00;;
9970;SDS011;5026;51.494;11.974;2022-10-16T09:07:38;0.73;;;0.68;;
9970;SDS011;5026;51.494;11.974;2022-10-16T09:10:15;1.75;;;1.00;;
9970;SDS011;5026;51.494;11.974;2022-10-16T09:12:53;1.30;;;0.88;;
9970;SDS011;5026;51.494;11.974;2022-10-16T09:15:27;1.77;;;0.73;;
9970;SDS011;5026;51.494;11.974;2022-10-16T09:17:59;1.83;;;0.80;;
9970;SDS011;5026;51.494;11.974;2022-10-16T09:20:50;1.73;;;0.85;;
9970;SDS011;5026;51.494;11.974;2022-10-16T09:23:24;1.75;;;0.60;;
9970;SDS011;5026;51.494;11.974;2022-10-16T09:25:52;0.70;;;0.70;;
9970;SDS011;5026;51.494;11.974;2022-10-16T09:28:20;0.60;;;0.60;;
9970;SDS011;5026;51.494;11.974;2022-10-16T09:30:47;1.13;;;0.63;;
9970;SDS011;5026;51.494;11.974;2022-10-16T09:33:15;0.70;;;0.60;;
9970;SDS011;5026;51.494;11.974;2022-10-16T09:35:45;0.50;;;0.50;;
9970;SDS011;5026;51.494;11.974;2022-10-16T09:38:21;0.95;;;0.70;;
9970;SDS011;5026;51.494;11.974;2022-10-16T09:40:49;0.47;;;0.47;;
9970;SDS011;5026;51.494;11.974;2022-10-16T09:43:19;0.70;;;0.70;;
9970;SDS011;5026;51.494;11.974;2022-10-16T09:45:56;0.60;;;0.60;;
9970;SDS011;5026;51.494;11.974;2022-10-16T09:48:25;0.55;;;0.55;;
9970;SDS011;5026;51.494;11.974;2022-10-16T09:50:59;1.40;;;0.60;;
9970;SDS011;5026;51.494;11.974;2022-10-16T09:53:38;0.90;;;0.70;;
9970;SDS011;5026;51.494;11.974;2022-10-16T09:56:06;1.70;;;0.68;;
9970;SDS011;5026;51.494;11.974;2022-10-16T09:58:35;0.35;;;0.32;;
9970;SDS011;5026;51.494;11.974;2022-10-16T10:01:04;0.30;;;0.30;;
9970;SDS011;5026;51.494;11.974;2022-10-16T10:03:35;1.95;;;0.38;;
9970;SDS011;5026;51.494;11.974;2022-10-16T10:06:06;1.55;;;0.50;;
9970;SDS011;5026;51.494;11.974;2022-10-16T10:08:52;0.50;;;0.50;;
9970;SDS011;5026;51.494;11.974;2022-10-16T10:11:41;1.00;;;0.70;;
9970;SDS011;5026;51.494;11.974;2022-10-16T10:14:17;1.58;;;0.77;;
9970;SDS011;5026;51.494;11.974;2022-10-16T10:16:47;0.50;;;0.50;;
9970;SDS011;5026;51.494;11.974;2022-10-16T10:19:14;0.30;;;0.30;;
9970;SDS011;5026;51.494;11.974;2022-10-16T10:21:44;0.80;;;0.30;;
9970;SDS011;5026;51.494;11.974;2022-10-16T10:24:12;0.98;;;0.32;;
9970;SDS011;5026;51.494;11.974;2022-10-16T10:26:41;0.40;;;0.38;;
9970;SDS011;5026;51.494;11.974;2022-10-16T10:29:17;0.30;;;0.30;;
9970;SDS011;5026;51.494;11.974;2022-10-16T10:31:53;0.68;;;0.43;;
9970;SDS011;5026;51.494;11.974;2022-10-16T10:34:34;0.57;;;0.52;;
9970;SDS011;5026;51.494;11.974;2022-10-16T10:37:20;1.02;;;0.68;;
9970;SDS011;5026;51.494;11.974;2022-10-16T10:39:57;0.77;;;0.52;;
9970;SDS011;5026;51.494;11.974;2022-10-16T10:42:34;0.82;;;0.30;;
9970;SDS011;5026;51.494;11.974;2022-10-16T10:45:17;0.40;;;0.40;;
9970;SDS011;5026;51.494;11.974;2022-10-16T10:47:53;0.63;;;0.50;;
9970;SDS011;5026;51.494;11.974;2022-10-16T10:50:33;0.40;;;0.40;;
9970;SDS011;5026;51.494;11.974;2022-10-16T10:53:09;2.05;;;0.60;;
9970;SDS011;5026;51.494;11.974;2022-10-16T10:55:48;0.40;;;0.40;;
9970;SDS011;5026;51.494;11.974;2022-10-16T10:58:35;0.40;;;0.40;;
9970;SDS011;5026;51.494;11.974;2022-10-16T11:01:14;1.80;;;0.50;;
9970;SDS011;5026;51.494;11.974;2022-10-16T11:03:56;0.38;;;0.38;;
9970;SDS011;5026;51.494;11.974;2022-10-16T11:06:30;0.40;;;0.40;;
9970;SDS011;5026;51.494;11.974;2022-10-16T11:09:02;0.35;;;0.35;;
9970;SDS011;5026;51.494;11.974;2022-10-16T11:11:38;0.73;;;0.50;;
9970;SDS011;5026;51.494;11.974;2022-10-16T11:14:11;3.22;;;0.60;;
9970;SDS011;5026;51.494;11.974;2022-10-16T11:16:44;0.77;;;0.60;;
9970;SDS011;5026;51.494;11.974;2022-10-16T11:19:20;3.75;;;0.80;;
9970;SDS011;5026;51.494;11.974;2022-10-16T11:21:55;0.60;;;0.55;;
9970;SDS011;5026;51.494;11.974;2022-10-16T11:24:34;0.32;;;0.30;;
9970;SDS011;5026;51.494;11.974;2022-10-16T11:27:04;0.93;;;0.60;;
9970;SDS011;5026;51.494;11.974;2022-10-16T11:29:40;1.95;;;0.98;;
9970;SDS011;5026;51.494;11.974;2022-10-16T11:32:15;0.50;;;0.50;;
9970;SDS011;5026;51.494;11.974;2022-10-16T11:34:49;1.40;;;0.63;;
9970;SDS011;5026;51.494;11.974;2022-10-16T11:37:23;0.80;;;0.50;;
9970;SDS011;5026;51.494;11.974;2022-10-16T11:39:58;0.70;;;0.70;;
9970;SDS011;5026;51.494;11.974;2022-10-16T11:42:32;2.58;;;0.70;;
9970;SDS011;5026;51.494;11.974;2022-10-16T11:45:04;1.75;;;0.68;;
9970;SDS011;5026;51.494;11.974;2022-10-16T11:47:42;0.55;;;0.55;;
9970;SDS011;5026;51.494;11.974;2022-10-16T11:50:13;0.85;;;0.70;;
9970;SDS011;5026;51.494;11.974;2022-10-16T11:52:49;0.70;;;0.70;;
9970;SDS011;5026;51.494;11.974;2022-10-16T11:55:22;0.70;;;0.70;;
9970;SDS011;5026;51.494;11.974;2022-10-16T11:57:57;1.05;;;0.90;;
9970;SDS011;5026;51.494;11.974;2022-10-16T12:00:28;1.25;;;0.80;;
9970;SDS011;5026;51.494;11.974;2022-10-16T12:02:58;1.73;;;0.40;;
9970;SDS011;5026;51.494;11.974;2022-10-16T12:05:36;2.20;;;0.70;;
9970;SDS011;5026;51.494;11.974;2022-10-16T12:08:17;0.85;;;0.60;;
9970;SDS011;5026;51.494;11.974;2022-10-16T12:10:46;0.70;;;0.70;;
9970;SDS011;5026;51.494;11.974;2022-10-16T12:13:30;0.77;;;0.70;;
9970;SDS011;5026;51.494;11.974;2022-10-16T12:16:05;0.63;;;0.63;;
9970;SDS011;5026;51.494;11.974;2022-10-16T12:18:33;0.45;;;0.40;;
9970;SDS011;5026;51.494;11.974;2022-10-16T12:21:00;1.75;;;0.60;;
9970;SDS011;5026;51.494;11.974;2022-10-16T12:23:31;1.38;;;0.80;;
9970;SDS011;5026;51.494;11.974;2022-10-16T12:26:00;0.70;;;0.70;;
9970;SDS011;5026;51.494;11.974;2022-10-16T12:28:28;0.65;;;0.65;;
9970;SDS011;5026;51.494;11.974;2022-10-16T12:30:57;0.65;;;0.45;;
9970;SDS011;5026;51.494;11.974;2022-10-16T12:33:26;2.70;;;0.40;;
9970;SDS011;5026;51.494;11.974;2022-10-16T12:35:54;0.55;;;0.55;;
9970;SDS011;5026;51.494;11.974;2022-10-16T12:38:25;1.85;;;0.52;;
9970;SDS011;5026;51.494;11.974;2022-10-16T12:40:57;2.00;;;0.52;;
9970;SDS011;5026;51.494;11.974;2022-10-16T12:43:34;0.80;;;0.70;;
9970;SDS011;5026;51.494;11.974;2022-10-16T12:46:05;1.05;;;1.00;;
9970;SDS011;5026;51.494;11.974;2022-10-16T12:48:47;1.15;;;0.50;;
9970;SDS011;5026;51.494;11.974;2022-10-16T12:51:22;1.67;;;1.00;;
9970;SDS011;5026;51.494;11.974;2022-10-16T12:53:58;0.57;;;0.35;;
9970;SDS011;5026;51.494;11.974;2022-10-16T12:56:28;0.40;;;0.40;;
9970;SDS011;5026;51.494;11.974;2022-10-16T12:59:09;2.67;;;0.60;;
9970;SDS011;5026;51.494;11.974;2022-10-16T13:01:49;1.27;;;0.57;;
9970;SDS011;5026;51.494;11.974;2022-10-16T13:04:33;2.45;;;0.50;;
9970;SDS011;5026;51.494;11.974;2022-10-16T13:07:27;1.02;;;0.47;;
9970;SDS011;5026;51.494;11.974;2022-10-16T13:10:05;1.05;;;0.50;;
9970;SDS011;5026;51.494;11.974;2022-10-16T13:12:46;0.57;;;0.50;;
9970;SDS011;5026;51.494;11.974;2022-10-16T13:15:25;0.70;;;0.47;;
9970;SDS011;5026;51.494;11.974;2022-10-16T13:18:03;1.58;;;0.65;;
9970;SDS011;5026;51.494;11.974;2022-10-16T13:20:43;1.23;;;0.55;;
9970;SDS011;5026;51.494;11.974;2022-10-16T13:23:23;0.50;;;0.50;;
9970;SDS011;5026;51.494;11.974;2022-10-16T13:25:58;0.90;;;0.40;;
9970;SDS011;5026;51.494;11.974;2022-10-16T13:28:35;1.38;;;0.65;;
9970;SDS011;5026;51.494;11.974;2022-10-16T13:31:05;0.80;;;0.68;;
9970;SDS011;5026;51.494;11.974;2022-10-16T13:33:37;1.10;;;0.60;;
9970;SDS011;5026;51.494;11.974;2022-10-16T13:36:17;1.30;;;0.60;;
9970;SDS011;5026;51.494;11.974;2022-10-16T13:38:46;0.88;;;0.60;;
9970;SDS011;5026;51.494;11.974;2022-10-16T13:41:14;1.48;;;0.50;;
9970;SDS011;5026;51.494;11.974;2022-10-16T13:43:43;0.60;;;0.60;;
9970;SDS011;5026;51.494;11.974;2022-10-16T13:46:12;0.60;;;0.57;;
9970;SDS011;5026;51.494;11.974;2022-10-16T13:48:40;0.82;;;0.47;;
9970;SDS011;5026;51.494;11.974;2022-10-16T13:51:11;1.80;;;0.50;;
9970;SDS011;5026;51.494;11.974;2022-10-16T13:53:39;0.50;;;0.50;;
9970;SDS011;5026;51.494;11.974;2022-10-16T13:56:07;0.73;;;0.50;;
9970;SDS011;5026;51.494;11.974;2022-10-16T13:58:37;0.90;;;0.60;;
9970;SDS011;5026;51.494;11.974;2022-10-16T14:01:06;0.40;;;0.40;;
9970;SDS011;5026;51.494;11.974;2022-10-16T14:03:42;0.68;;;0.55;;
9970;SDS011;5026;51.494;11.974;2022-10-16T14:06:11;1.33;;;0.80;;
9970;SDS011;5026;51.494;11.974;2022-10-16T14:08:41;1.23;;;0.90;;
9970;SDS011;5026;51.494;11.974;2022-10-16T14:11:11;2.55;;;0.77;;
9970;SDS011;5026;51.494;11.974;2022-10-16T14:13:39;0.40;;;0.40;;
9970;SDS011;5026;51.494;11.974;2022-10-16T14:16:11;0.93;;;0.60;;
9970;SDS011;5026;51.494;11.974;2022-10-16T14:18:44;0.70;;;0.70;;
9970;SDS011;5026;51.494;11.974;2022-10-16T14:21:15;1.10;;;0.70;;
9970;SDS011;5026;51.494;11.974;2022-10-16T14:23:42;0.98;;;0.68;;
9970;SDS011;5026;51.494;11.974;2022-10-16T14:26:13;0.95;;;0.80;;
9970;SDS011;5026;51.494;11.974;2022-10-16T14:28:42;1.83;;;0.80;;
9970;SDS011;5026;51.494;11.974;2022-10-16T14:31:25;0.95;;;0.70;;
9970;SDS011;5026;51.494;11.974;2022-10-16T14:33:53;0.88;;;0.88;;
9970;SDS011;5026;51.494;11.974;2022-10-16T14:36:20;1.80;;;0.80;;
9970;SDS011;5026;51.494;11.974;2022-10-16T14:38:49;0.93;;;0.77;;
9970;SDS011;5026;51.494;11.974;2022-10-16T14:41:20;2.75;;;1.00;;
9970;SDS011;5026;51.494;11.974;2022-10-16T14:43:49;1.70;;;0.50;;
9970;SDS011;5026;51.494;11.974;2022-10-16T14:46:19;0.93;;;0.65;;
9970;SDS011;5026;51.494;11.974;2022-10-16T14:48:53;1.25;;;1.10;;
9970;SDS011;5026;51.494;11.974;2022-10-16T14:51:25;1.95;;;1.00;;
9970;SDS011;5026;51.494;11.974;2022-10-16T14:53:52;1.25;;;1.13;;
9970;SDS011;5026;51.494;11.974;2022-10-16T14:56:20;1.17;;;0.80;;
9970;SDS011;5026;51.494;11.974;2022-10-16T14:58:49;2.08;;;0.80;;
9970;SDS011;5026;51.494;11.974;2022-10-16T15:01:18;1.40;;;1.30;;
9970;SDS011;5026;51.494;11.974;2022-10-16T15:03:45;1.75;;;0.85;;
9970;SDS011;5026;51.494;11.974;2022-10-16T15:06:14;0.65;;;0.65;;
9970;SDS011;5026;51.494;11.974;2022-10-16T15:08:42;0.75;;;0.70;;
9970;SDS011;5026;51.494;11.974;2022-10-16T15:11:09;2.80;;;1.02;;
9970;SDS011;5026;51.494;11.974;2022-10-16T15:13:38;1.58;;;1.17;;
9970;SDS011;5026;51.494;11.974;2022-10-16T15:16:07;1.75;;;1.20;;
9970;SDS011;5026;51.494;11.974;2022-10-16T15:18:36;0.70;;;0.70;;
9970;SDS011;5026;51.494;11.974;2022-10-16T15:21:03;0.88;;;0.80;;